<?xml version="1.0" encoding="UTF-8" standalone="no" ?>
<gpx xmlns="http://www.topografix.com/GPX/1/1" xmlns:xsi="http://www.w3.org/2001/XMLSchema-instance" xsi:schemaLocation="http://www.topografix.com/GPX/1/1 http://www.topografix.com/GPX/1/1/gpx.xsd" version="1.1" creator="VisuGPX - https://www.visugpx.com">
  <metadata>
    <name>ccv_6mars11_47km</name>
    <desc><![CDATA[ccv_6mars11_47kmccv_6mars11_47kmccv_6mars11_47kmccv_6mars11_47km]]></desc>
  </metadata>
  <trk>
    <name><![CDATA[Toaster Course]]></name>
    <trkseg>
      <trkpt lat="48.63427" lon="6.31293">
        <ele>206</ele>
        <time>2011-03-04T00:00:00Z</time>
      </trkpt>
      <trkpt lat="48.63424" lon="6.31304">
        <ele>205</ele>
        <time>2011-03-04T00:00:01Z</time>
      </trkpt>
      <trkpt lat="48.63393" lon="6.31285">
        <ele>205</ele>
        <time>2011-03-04T00:00:05Z</time>
      </trkpt>
      <trkpt lat="48.63384" lon="6.31263">
        <ele>205</ele>
        <time>2011-03-04T00:00:07Z</time>
      </trkpt>
      <trkpt lat="48.63384" lon="6.31238">
        <ele>205</ele>
        <time>2011-03-04T00:00:09Z</time>
      </trkpt>
      <trkpt lat="48.63433" lon="6.31123">
        <ele>204</ele>
        <time>2011-03-04T00:00:22Z</time>
      </trkpt>
      <trkpt lat="48.63477" lon="6.31077">
        <ele>205</ele>
        <time>2011-03-04T00:00:33Z</time>
      </trkpt>
      <trkpt lat="48.63496" lon="6.3107">
        <ele>206</ele>
        <time>2011-03-04T00:00:37Z</time>
      </trkpt>
      <trkpt lat="48.6363" lon="6.31164">
        <ele>211</ele>
        <time>2011-03-04T00:01:08Z</time>
      </trkpt>
      <trkpt lat="48.63646" lon="6.31195">
        <ele>211</ele>
        <time>2011-03-04T00:01:14Z</time>
      </trkpt>
      <trkpt lat="48.63652" lon="6.3124">
        <ele>213</ele>
        <time>2011-03-04T00:01:20Z</time>
      </trkpt>
      <trkpt lat="48.6364" lon="6.31321">
        <ele>215</ele>
        <time>2011-03-04T00:01:32Z</time>
      </trkpt>
      <trkpt lat="48.6362" lon="6.31392">
        <ele>212</ele>
        <time>2011-03-04T00:01:39Z</time>
      </trkpt>
      <trkpt lat="48.63593" lon="6.31454">
        <ele>210</ele>
        <time>2011-03-04T00:01:46Z</time>
      </trkpt>
      <trkpt lat="48.6353" lon="6.31567">
        <ele>208</ele>
        <time>2011-03-04T00:01:59Z</time>
      </trkpt>
      <trkpt lat="48.63416" lon="6.32119">
        <ele>208</ele>
        <time>2011-03-04T00:02:50Z</time>
      </trkpt>
      <trkpt lat="48.63429" lon="6.32139">
        <ele>208</ele>
        <time>2011-03-04T00:02:54Z</time>
      </trkpt>
      <trkpt lat="48.63462" lon="6.32217">
        <ele>210</ele>
        <time>2011-03-04T00:03:06Z</time>
      </trkpt>
      <trkpt lat="48.63506" lon="6.32265">
        <ele>212</ele>
        <time>2011-03-04T00:03:17Z</time>
      </trkpt>
      <trkpt lat="48.63527" lon="6.32279">
        <ele>213</ele>
        <time>2011-03-04T00:03:23Z</time>
      </trkpt>
      <trkpt lat="48.63702" lon="6.3234">
        <ele>222</ele>
        <time>2011-03-04T00:04:08Z</time>
      </trkpt>
      <trkpt lat="48.63758" lon="6.32397">
        <ele>223</ele>
        <time>2011-03-04T00:04:21Z</time>
      </trkpt>
      <trkpt lat="48.63838" lon="6.32466">
        <ele>226</ele>
        <time>2011-03-04T00:04:39Z</time>
      </trkpt>
      <trkpt lat="48.63917" lon="6.32522">
        <ele>226</ele>
        <time>2011-03-04T00:04:53Z</time>
      </trkpt>
      <trkpt lat="48.63948" lon="6.32552">
        <ele>227</ele>
        <time>2011-03-04T00:04:58Z</time>
      </trkpt>
      <trkpt lat="48.6401" lon="6.32635">
        <ele>228</ele>
        <time>2011-03-04T00:05:13Z</time>
      </trkpt>
      <trkpt lat="48.64034" lon="6.32659">
        <ele>229</ele>
        <time>2011-03-04T00:05:18Z</time>
      </trkpt>
      <trkpt lat="48.64037" lon="6.32672">
        <ele>229</ele>
        <time>2011-03-04T00:05:20Z</time>
      </trkpt>
      <trkpt lat="48.64094" lon="6.3271">
        <ele>230</ele>
        <time>2011-03-04T00:05:30Z</time>
      </trkpt>
      <trkpt lat="48.64134" lon="6.32721">
        <ele>231</ele>
        <time>2011-03-04T00:05:38Z</time>
      </trkpt>
      <trkpt lat="48.64261" lon="6.32704">
        <ele>236</ele>
        <time>2011-03-04T00:06:07Z</time>
      </trkpt>
      <trkpt lat="48.64294" lon="6.32705">
        <ele>237</ele>
        <time>2011-03-04T00:06:15Z</time>
      </trkpt>
      <trkpt lat="48.64349" lon="6.32723">
        <ele>240</ele>
        <time>2011-03-04T00:06:30Z</time>
      </trkpt>
      <trkpt lat="48.64478" lon="6.32903">
        <ele>250</ele>
        <time>2011-03-04T00:07:16Z</time>
      </trkpt>
      <trkpt lat="48.64661" lon="6.33116">
        <ele>262</ele>
        <time>2011-03-04T00:08:15Z</time>
      </trkpt>
      <trkpt lat="48.64762" lon="6.33226">
        <ele>268</ele>
        <time>2011-03-04T00:08:46Z</time>
      </trkpt>
      <trkpt lat="48.64941" lon="6.3335">
        <ele>273</ele>
        <time>2011-03-04T00:09:25Z</time>
      </trkpt>
      <trkpt lat="48.6506" lon="6.3352">
        <ele>273</ele>
        <time>2011-03-04T00:09:46Z</time>
      </trkpt>
      <trkpt lat="48.65088" lon="6.33577">
        <ele>273</ele>
        <time>2011-03-04T00:09:53Z</time>
      </trkpt>
      <trkpt lat="48.65145" lon="6.33764">
        <ele>274</ele>
        <time>2011-03-04T00:10:13Z</time>
      </trkpt>
      <trkpt lat="48.65149" lon="6.33789">
        <ele>274</ele>
        <time>2011-03-04T00:10:16Z</time>
      </trkpt>
      <trkpt lat="48.65149" lon="6.33837">
        <ele>274</ele>
        <time>2011-03-04T00:10:20Z</time>
      </trkpt>
      <trkpt lat="48.65155" lon="6.33919">
        <ele>274</ele>
        <time>2011-03-04T00:10:27Z</time>
      </trkpt>
      <trkpt lat="48.65167" lon="6.33972">
        <ele>273</ele>
        <time>2011-03-04T00:10:32Z</time>
      </trkpt>
      <trkpt lat="48.65207" lon="6.3409">
        <ele>272</ele>
        <time>2011-03-04T00:10:44Z</time>
      </trkpt>
      <trkpt lat="48.65251" lon="6.34199">
        <ele>270</ele>
        <time>2011-03-04T00:10:55Z</time>
      </trkpt>
      <trkpt lat="48.6529" lon="6.34283">
        <ele>269</ele>
        <time>2011-03-04T00:11:04Z</time>
      </trkpt>
      <trkpt lat="48.65325" lon="6.34343">
        <ele>267</ele>
        <time>2011-03-04T00:11:11Z</time>
      </trkpt>
      <trkpt lat="48.65412" lon="6.34473">
        <ele>263</ele>
        <time>2011-03-04T00:11:27Z</time>
      </trkpt>
      <trkpt lat="48.65563" lon="6.34765">
        <ele>257</ele>
        <time>2011-03-04T00:12:00Z</time>
      </trkpt>
      <trkpt lat="48.65617" lon="6.3489">
        <ele>254</ele>
        <time>2011-03-04T00:12:13Z</time>
      </trkpt>
      <trkpt lat="48.65708" lon="6.35155">
        <ele>254</ele>
        <time>2011-03-04T00:12:40Z</time>
      </trkpt>
      <trkpt lat="48.65731" lon="6.35207">
        <ele>253</ele>
        <time>2011-03-04T00:12:45Z</time>
      </trkpt>
      <trkpt lat="48.6576" lon="6.35247">
        <ele>253</ele>
        <time>2011-03-04T00:12:50Z</time>
      </trkpt>
      <trkpt lat="48.6584" lon="6.35325">
        <ele>252</ele>
        <time>2011-03-04T00:13:03Z</time>
      </trkpt>
      <trkpt lat="48.65874" lon="6.35397">
        <ele>252</ele>
        <time>2011-03-04T00:13:13Z</time>
      </trkpt>
      <trkpt lat="48.65885" lon="6.3543">
        <ele>253</ele>
        <time>2011-03-04T00:13:17Z</time>
      </trkpt>
      <trkpt lat="48.65896" lon="6.35515">
        <ele>254</ele>
        <time>2011-03-04T00:13:27Z</time>
      </trkpt>
      <trkpt lat="48.65915" lon="6.35587">
        <ele>254</ele>
        <time>2011-03-04T00:13:35Z</time>
      </trkpt>
      <trkpt lat="48.6599" lon="6.35935">
        <ele>257</ele>
        <time>2011-03-04T00:14:13Z</time>
      </trkpt>
      <trkpt lat="48.66014" lon="6.36009">
        <ele>256</ele>
        <time>2011-03-04T00:14:20Z</time>
      </trkpt>
      <trkpt lat="48.66061" lon="6.36106">
        <ele>256</ele>
        <time>2011-03-04T00:14:31Z</time>
      </trkpt>
      <trkpt lat="48.66104" lon="6.36023">
        <ele>253</ele>
        <time>2011-03-04T00:14:40Z</time>
      </trkpt>
      <trkpt lat="48.66112" lon="6.35996">
        <ele>252</ele>
        <time>2011-03-04T00:14:43Z</time>
      </trkpt>
      <trkpt lat="48.66118" lon="6.35938">
        <ele>251</ele>
        <time>2011-03-04T00:14:48Z</time>
      </trkpt>
      <trkpt lat="48.66113" lon="6.35798">
        <ele>251</ele>
        <time>2011-03-04T00:15:00Z</time>
      </trkpt>
      <trkpt lat="48.66113" lon="6.35753">
        <ele>249</ele>
        <time>2011-03-04T00:15:04Z</time>
      </trkpt>
      <trkpt lat="48.66116" lon="6.35736">
        <ele>249</ele>
        <time>2011-03-04T00:15:06Z</time>
      </trkpt>
      <trkpt lat="48.66121" lon="6.35729">
        <ele>249</ele>
        <time>2011-03-04T00:15:07Z</time>
      </trkpt>
      <trkpt lat="48.66184" lon="6.357">
        <ele>247</ele>
        <time>2011-03-04T00:15:16Z</time>
      </trkpt>
      <trkpt lat="48.66267" lon="6.3565">
        <ele>242</ele>
        <time>2011-03-04T00:15:28Z</time>
      </trkpt>
      <trkpt lat="48.66319" lon="6.35614">
        <ele>239</ele>
        <time>2011-03-04T00:15:35Z</time>
      </trkpt>
      <trkpt lat="48.66375" lon="6.35567">
        <ele>236</ele>
        <time>2011-03-04T00:15:44Z</time>
      </trkpt>
      <trkpt lat="48.66562" lon="6.35396">
        <ele>229</ele>
        <time>2011-03-04T00:16:13Z</time>
      </trkpt>
      <trkpt lat="48.66709" lon="6.35235">
        <ele>230</ele>
        <time>2011-03-04T00:16:40Z</time>
      </trkpt>
      <trkpt lat="48.66725" lon="6.35223">
        <ele>230</ele>
        <time>2011-03-04T00:16:42Z</time>
      </trkpt>
      <trkpt lat="48.66812" lon="6.35218">
        <ele>231</ele>
        <time>2011-03-04T00:16:56Z</time>
      </trkpt>
      <trkpt lat="48.66841" lon="6.35198">
        <ele>230</ele>
        <time>2011-03-04T00:17:00Z</time>
      </trkpt>
      <trkpt lat="48.67292" lon="6.34749">
        <ele>218</ele>
        <time>2011-03-04T00:18:12Z</time>
      </trkpt>
      <trkpt lat="48.67292" lon="6.34749">
        <ele>218</ele>
        <time>2011-03-04T00:18:13Z</time>
      </trkpt>
      <trkpt lat="48.67399" lon="6.34645">
        <ele>214</ele>
        <time>2011-03-04T00:18:30Z</time>
      </trkpt>
      <trkpt lat="48.67532" lon="6.34574">
        <ele>212</ele>
        <time>2011-03-04T00:18:49Z</time>
      </trkpt>
      <trkpt lat="48.67658" lon="6.34482">
        <ele>218</ele>
        <time>2011-03-04T00:19:22Z</time>
      </trkpt>
      <trkpt lat="48.67697" lon="6.34444">
        <ele>217</ele>
        <time>2011-03-04T00:19:28Z</time>
      </trkpt>
      <trkpt lat="48.67656" lon="6.34366">
        <ele>217</ele>
        <time>2011-03-04T00:19:37Z</time>
      </trkpt>
      <trkpt lat="48.67626" lon="6.34296">
        <ele>217</ele>
        <time>2011-03-04T00:19:45Z</time>
      </trkpt>
      <trkpt lat="48.67612" lon="6.34252">
        <ele>216</ele>
        <time>2011-03-04T00:19:49Z</time>
      </trkpt>
      <trkpt lat="48.67614" lon="6.34238">
        <ele>216</ele>
        <time>2011-03-04T00:19:50Z</time>
      </trkpt>
      <trkpt lat="48.6762" lon="6.34228">
        <ele>216</ele>
        <time>2011-03-04T00:19:51Z</time>
      </trkpt>
      <trkpt lat="48.67712" lon="6.3411">
        <ele>214</ele>
        <time>2011-03-04T00:20:07Z</time>
      </trkpt>
      <trkpt lat="48.67746" lon="6.34058">
        <ele>214</ele>
        <time>2011-03-04T00:20:16Z</time>
      </trkpt>
      <trkpt lat="48.67751" lon="6.34043">
        <ele>214</ele>
        <time>2011-03-04T00:20:17Z</time>
      </trkpt>
      <trkpt lat="48.67748" lon="6.34009">
        <ele>215</ele>
        <time>2011-03-04T00:20:21Z</time>
      </trkpt>
      <trkpt lat="48.67726" lon="6.33978">
        <ele>215</ele>
        <time>2011-03-04T00:20:26Z</time>
      </trkpt>
      <trkpt lat="48.67704" lon="6.33956">
        <ele>216</ele>
        <time>2011-03-04T00:20:31Z</time>
      </trkpt>
      <trkpt lat="48.67559" lon="6.33833">
        <ele>217</ele>
        <time>2011-03-04T00:20:55Z</time>
      </trkpt>
      <trkpt lat="48.675" lon="6.3377">
        <ele>215</ele>
        <time>2011-03-04T00:21:05Z</time>
      </trkpt>
      <trkpt lat="48.67468" lon="6.33718">
        <ele>214</ele>
        <time>2011-03-04T00:21:11Z</time>
      </trkpt>
      <trkpt lat="48.67453" lon="6.33683">
        <ele>214</ele>
        <time>2011-03-04T00:21:16Z</time>
      </trkpt>
      <trkpt lat="48.67426" lon="6.33566">
        <ele>216</ele>
        <time>2011-03-04T00:21:31Z</time>
      </trkpt>
      <trkpt lat="48.674" lon="6.33317">
        <ele>217</ele>
        <time>2011-03-04T00:21:55Z</time>
      </trkpt>
      <trkpt lat="48.67384" lon="6.33257">
        <ele>217</ele>
        <time>2011-03-04T00:22:01Z</time>
      </trkpt>
      <trkpt lat="48.67342" lon="6.33141">
        <ele>217</ele>
        <time>2011-03-04T00:22:13Z</time>
      </trkpt>
      <trkpt lat="48.67297" lon="6.33043">
        <ele>217</ele>
        <time>2011-03-04T00:22:23Z</time>
      </trkpt>
      <trkpt lat="48.6727" lon="6.33022">
        <ele>217</ele>
        <time>2011-03-04T00:22:27Z</time>
      </trkpt>
      <trkpt lat="48.67235" lon="6.33019">
        <ele>217</ele>
        <time>2011-03-04T00:22:34Z</time>
      </trkpt>
      <trkpt lat="48.67188" lon="6.32968">
        <ele>219</ele>
        <time>2011-03-04T00:22:45Z</time>
      </trkpt>
      <trkpt lat="48.6715" lon="6.32877">
        <ele>221</ele>
        <time>2011-03-04T00:22:59Z</time>
      </trkpt>
      <trkpt lat="48.67087" lon="6.32701">
        <ele>223</ele>
        <time>2011-03-04T00:23:21Z</time>
      </trkpt>
      <trkpt lat="48.67016" lon="6.32412">
        <ele>223</ele>
        <time>2011-03-04T00:23:48Z</time>
      </trkpt>
      <trkpt lat="48.67002" lon="6.32366">
        <ele>223</ele>
        <time>2011-03-04T00:23:53Z</time>
      </trkpt>
      <trkpt lat="48.67002" lon="6.32315">
        <ele>223</ele>
        <time>2011-03-04T00:23:59Z</time>
      </trkpt>
      <trkpt lat="48.67007" lon="6.32299">
        <ele>223</ele>
        <time>2011-03-04T00:24:00Z</time>
      </trkpt>
      <trkpt lat="48.67045" lon="6.32232">
        <ele>224</ele>
        <time>2011-03-04T00:24:09Z</time>
      </trkpt>
      <trkpt lat="48.67065" lon="6.32183">
        <ele>223</ele>
        <time>2011-03-04T00:24:14Z</time>
      </trkpt>
      <trkpt lat="48.67067" lon="6.32141">
        <ele>222</ele>
        <time>2011-03-04T00:24:18Z</time>
      </trkpt>
      <trkpt lat="48.67063" lon="6.32073">
        <ele>222</ele>
        <time>2011-03-04T00:24:24Z</time>
      </trkpt>
      <trkpt lat="48.66939" lon="6.31574">
        <ele>226</ele>
        <time>2011-03-04T00:25:21Z</time>
      </trkpt>
      <trkpt lat="48.66915" lon="6.31495">
        <ele>226</ele>
        <time>2011-03-04T00:25:28Z</time>
      </trkpt>
      <trkpt lat="48.66867" lon="6.31352">
        <ele>226</ele>
        <time>2011-03-04T00:25:42Z</time>
      </trkpt>
      <trkpt lat="48.66825" lon="6.3124">
        <ele>226</ele>
        <time>2011-03-04T00:25:55Z</time>
      </trkpt>
      <trkpt lat="48.66786" lon="6.31148">
        <ele>227</ele>
        <time>2011-03-04T00:26:06Z</time>
      </trkpt>
      <trkpt lat="48.66761" lon="6.31115">
        <ele>227</ele>
        <time>2011-03-04T00:26:10Z</time>
      </trkpt>
      <trkpt lat="48.66733" lon="6.3112">
        <ele>227</ele>
        <time>2011-03-04T00:26:14Z</time>
      </trkpt>
      <trkpt lat="48.66685" lon="6.31149">
        <ele>227</ele>
        <time>2011-03-04T00:26:21Z</time>
      </trkpt>
      <trkpt lat="48.66618" lon="6.31181">
        <ele>227</ele>
        <time>2011-03-04T00:26:32Z</time>
      </trkpt>
      <trkpt lat="48.66604" lon="6.31184">
        <ele>227</ele>
        <time>2011-03-04T00:26:34Z</time>
      </trkpt>
      <trkpt lat="48.66591" lon="6.31172">
        <ele>228</ele>
        <time>2011-03-04T00:26:37Z</time>
      </trkpt>
      <trkpt lat="48.66384" lon="6.3054">
        <ele>234</ele>
        <time>2011-03-04T00:27:53Z</time>
      </trkpt>
      <trkpt lat="48.66383" lon="6.30508">
        <ele>233</ele>
        <time>2011-03-04T00:27:56Z</time>
      </trkpt>
      <trkpt lat="48.66389" lon="6.30502">
        <ele>233</ele>
        <time>2011-03-04T00:27:57Z</time>
      </trkpt>
      <trkpt lat="48.66488" lon="6.30439">
        <ele>233</ele>
        <time>2011-03-04T00:28:11Z</time>
      </trkpt>
      <trkpt lat="48.66527" lon="6.30424">
        <ele>234</ele>
        <time>2011-03-04T00:28:20Z</time>
      </trkpt>
      <trkpt lat="48.66495" lon="6.30282">
        <ele>237</ele>
        <time>2011-03-04T00:28:40Z</time>
      </trkpt>
      <trkpt lat="48.6649" lon="6.30245">
        <ele>237</ele>
        <time>2011-03-04T00:28:44Z</time>
      </trkpt>
      <trkpt lat="48.66425" lon="6.2977">
        <ele>243</ele>
        <time>2011-03-04T00:29:40Z</time>
      </trkpt>
      <trkpt lat="48.66396" lon="6.29637">
        <ele>244</ele>
        <time>2011-03-04T00:29:55Z</time>
      </trkpt>
      <trkpt lat="48.66399" lon="6.29541">
        <ele>244</ele>
        <time>2011-03-04T00:30:04Z</time>
      </trkpt>
      <trkpt lat="48.66428" lon="6.29378">
        <ele>245</ele>
        <time>2011-03-04T00:30:21Z</time>
      </trkpt>
      <trkpt lat="48.66427" lon="6.29316">
        <ele>245</ele>
        <time>2011-03-04T00:30:27Z</time>
      </trkpt>
      <trkpt lat="48.66268" lon="6.28746">
        <ele>249</ele>
        <time>2011-03-04T00:31:30Z</time>
      </trkpt>
      <trkpt lat="48.66261" lon="6.28707">
        <ele>248</ele>
        <time>2011-03-04T00:31:34Z</time>
      </trkpt>
      <trkpt lat="48.66256" lon="6.28635">
        <ele>247</ele>
        <time>2011-03-04T00:31:40Z</time>
      </trkpt>
      <trkpt lat="48.66243" lon="6.28527">
        <ele>247</ele>
        <time>2011-03-04T00:31:50Z</time>
      </trkpt>
      <trkpt lat="48.66239" lon="6.28455">
        <ele>246</ele>
        <time>2011-03-04T00:31:56Z</time>
      </trkpt>
      <trkpt lat="48.66237" lon="6.28232">
        <ele>246</ele>
        <time>2011-03-04T00:32:16Z</time>
      </trkpt>
      <trkpt lat="48.66218" lon="6.28068">
        <ele>242</ele>
        <time>2011-03-04T00:32:31Z</time>
      </trkpt>
      <trkpt lat="48.66174" lon="6.27882">
        <ele>239</ele>
        <time>2011-03-04T00:32:48Z</time>
      </trkpt>
      <trkpt lat="48.66131" lon="6.27761">
        <ele>237</ele>
        <time>2011-03-04T00:33:00Z</time>
      </trkpt>
      <trkpt lat="48.66041" lon="6.27534">
        <ele>234</ele>
        <time>2011-03-04T00:33:24Z</time>
      </trkpt>
      <trkpt lat="48.66035" lon="6.27486">
        <ele>233</ele>
        <time>2011-03-04T00:33:28Z</time>
      </trkpt>
      <trkpt lat="48.66034" lon="6.27357">
        <ele>231</ele>
        <time>2011-03-04T00:33:39Z</time>
      </trkpt>
      <trkpt lat="48.66028" lon="6.273">
        <ele>229</ele>
        <time>2011-03-04T00:33:44Z</time>
      </trkpt>
      <trkpt lat="48.66017" lon="6.27256">
        <ele>229</ele>
        <time>2011-03-04T00:33:49Z</time>
      </trkpt>
      <trkpt lat="48.66017" lon="6.27256">
        <ele>229</ele>
        <time>2011-03-04T00:33:50Z</time>
      </trkpt>
      <trkpt lat="48.65981" lon="6.27166">
        <ele>227</ele>
        <time>2011-03-04T00:33:59Z</time>
      </trkpt>
      <trkpt lat="48.65826" lon="6.2686">
        <ele>222</ele>
        <time>2011-03-04T00:34:33Z</time>
      </trkpt>
      <trkpt lat="48.65757" lon="6.26764">
        <ele>220</ele>
        <time>2011-03-04T00:34:45Z</time>
      </trkpt>
      <trkpt lat="48.65721" lon="6.26729">
        <ele>218</ele>
        <time>2011-03-04T00:34:51Z</time>
      </trkpt>
      <trkpt lat="48.65699" lon="6.26686">
        <ele>216</ele>
        <time>2011-03-04T00:34:56Z</time>
      </trkpt>
      <trkpt lat="48.65682" lon="6.26682">
        <ele>216</ele>
        <time>2011-03-04T00:34:58Z</time>
      </trkpt>
      <trkpt lat="48.65642" lon="6.26693">
        <ele>214</ele>
        <time>2011-03-04T00:35:04Z</time>
      </trkpt>
      <trkpt lat="48.65627" lon="6.26675">
        <ele>213</ele>
        <time>2011-03-04T00:35:06Z</time>
      </trkpt>
      <trkpt lat="48.65615" lon="6.26658">
        <ele>213</ele>
        <time>2011-03-04T00:35:08Z</time>
      </trkpt>
      <trkpt lat="48.65592" lon="6.26608">
        <ele>212</ele>
        <time>2011-03-04T00:35:14Z</time>
      </trkpt>
      <trkpt lat="48.65542" lon="6.26476">
        <ele>208</ele>
        <time>2011-03-04T00:35:27Z</time>
      </trkpt>
      <trkpt lat="48.65573" lon="6.26465">
        <ele>208</ele>
        <time>2011-03-04T00:35:32Z</time>
      </trkpt>
      <trkpt lat="48.65611" lon="6.26441">
        <ele>208</ele>
        <time>2011-03-04T00:35:39Z</time>
      </trkpt>
      <trkpt lat="48.65695" lon="6.2635">
        <ele>210</ele>
        <time>2011-03-04T00:35:56Z</time>
      </trkpt>
      <trkpt lat="48.65735" lon="6.26299">
        <ele>209</ele>
        <time>2011-03-04T00:36:03Z</time>
      </trkpt>
      <trkpt lat="48.65899" lon="6.25974">
        <ele>205</ele>
        <time>2011-03-04T00:36:39Z</time>
      </trkpt>
      <trkpt lat="48.65935" lon="6.25888">
        <ele>204</ele>
        <time>2011-03-04T00:36:48Z</time>
      </trkpt>
      <trkpt lat="48.65948" lon="6.2587">
        <ele>204</ele>
        <time>2011-03-04T00:36:50Z</time>
      </trkpt>
      <trkpt lat="48.65935" lon="6.25846">
        <ele>204</ele>
        <time>2011-03-04T00:36:53Z</time>
      </trkpt>
      <trkpt lat="48.65933" lon="6.25803">
        <ele>202</ele>
        <time>2011-03-04T00:36:57Z</time>
      </trkpt>
      <trkpt lat="48.65927" lon="6.25788">
        <ele>202</ele>
        <time>2011-03-04T00:36:58Z</time>
      </trkpt>
      <trkpt lat="48.65821" lon="6.25562">
        <ele>196</ele>
        <time>2011-03-04T00:37:23Z</time>
      </trkpt>
      <trkpt lat="48.65806" lon="6.25522">
        <ele>196</ele>
        <time>2011-03-04T00:37:27Z</time>
      </trkpt>
      <trkpt lat="48.65806" lon="6.25487">
        <ele>196</ele>
        <time>2011-03-04T00:37:30Z</time>
      </trkpt>
      <trkpt lat="48.65811" lon="6.25463">
        <ele>196</ele>
        <time>2011-03-04T00:37:32Z</time>
      </trkpt>
      <trkpt lat="48.65831" lon="6.25411">
        <ele>196</ele>
        <time>2011-03-04T00:37:37Z</time>
      </trkpt>
      <trkpt lat="48.65987" lon="6.25061">
        <ele>197</ele>
        <time>2011-03-04T00:38:17Z</time>
      </trkpt>
      <trkpt lat="48.66019" lon="6.2498">
        <ele>197</ele>
        <time>2011-03-04T00:38:25Z</time>
      </trkpt>
      <trkpt lat="48.66039" lon="6.24904">
        <ele>197</ele>
        <time>2011-03-04T00:38:32Z</time>
      </trkpt>
      <trkpt lat="48.66105" lon="6.24505">
        <ele>196</ele>
        <time>2011-03-04T00:39:09Z</time>
      </trkpt>
      <trkpt lat="48.66102" lon="6.24438">
        <ele>196</ele>
        <time>2011-03-04T00:39:15Z</time>
      </trkpt>
      <trkpt lat="48.6604" lon="6.23946">
        <ele>196</ele>
        <time>2011-03-04T00:39:59Z</time>
      </trkpt>
      <trkpt lat="48.66012" lon="6.2384">
        <ele>196</ele>
        <time>2011-03-04T00:40:09Z</time>
      </trkpt>
      <trkpt lat="48.65857" lon="6.23446">
        <ele>196</ele>
        <time>2011-03-04T00:40:49Z</time>
      </trkpt>
      <trkpt lat="48.65856" lon="6.23422">
        <ele>196</ele>
        <time>2011-03-04T00:40:52Z</time>
      </trkpt>
      <trkpt lat="48.65861" lon="6.23401">
        <ele>196</ele>
        <time>2011-03-04T00:40:53Z</time>
      </trkpt>
      <trkpt lat="48.65905" lon="6.23311">
        <ele>196</ele>
        <time>2011-03-04T00:41:03Z</time>
      </trkpt>
      <trkpt lat="48.65905" lon="6.23311">
        <ele>196</ele>
        <time>2011-03-04T00:41:04Z</time>
      </trkpt>
      <trkpt lat="48.65944" lon="6.23238">
        <ele>195</ele>
        <time>2011-03-04T00:41:13Z</time>
      </trkpt>
      <trkpt lat="48.65976" lon="6.23148">
        <ele>195</ele>
        <time>2011-03-04T00:41:22Z</time>
      </trkpt>
      <trkpt lat="48.65916" lon="6.23044">
        <ele>200</ele>
        <time>2011-03-04T00:41:46Z</time>
      </trkpt>
      <trkpt lat="48.65889" lon="6.2302">
        <ele>200</ele>
        <time>2011-03-04T00:41:51Z</time>
      </trkpt>
      <trkpt lat="48.6585" lon="6.22999">
        <ele>200</ele>
        <time>2011-03-04T00:41:58Z</time>
      </trkpt>
      <trkpt lat="48.65971" lon="6.22632">
        <ele>204</ele>
        <time>2011-03-04T00:42:41Z</time>
      </trkpt>
      <trkpt lat="48.65942" lon="6.226">
        <ele>204</ele>
        <time>2011-03-04T00:42:47Z</time>
      </trkpt>
      <trkpt lat="48.65927" lon="6.22574">
        <ele>204</ele>
        <time>2011-03-04T00:42:51Z</time>
      </trkpt>
      <trkpt lat="48.65842" lon="6.22408">
        <ele>207</ele>
        <time>2011-03-04T00:43:15Z</time>
      </trkpt>
      <trkpt lat="48.65842" lon="6.22408">
        <ele>207</ele>
        <time>2011-03-04T00:43:16Z</time>
      </trkpt>
      <trkpt lat="48.65835" lon="6.22396">
        <ele>207</ele>
        <time>2011-03-04T00:43:18Z</time>
      </trkpt>
      <trkpt lat="48.65902" lon="6.2232">
        <ele>208</ele>
        <time>2011-03-04T00:43:32Z</time>
      </trkpt>
      <trkpt lat="48.66002" lon="6.22192">
        <ele>210</ele>
        <time>2011-03-04T00:43:53Z</time>
      </trkpt>
      <trkpt lat="48.66008" lon="6.22064">
        <ele>211</ele>
        <time>2011-03-04T00:44:09Z</time>
      </trkpt>
      <trkpt lat="48.65988" lon="6.21866">
        <ele>215</ele>
        <time>2011-03-04T00:44:34Z</time>
      </trkpt>
      <trkpt lat="48.65959" lon="6.21786">
        <ele>216</ele>
        <time>2011-03-04T00:44:46Z</time>
      </trkpt>
      <trkpt lat="48.65914" lon="6.21683">
        <ele>219</ele>
        <time>2011-03-04T00:45:03Z</time>
      </trkpt>
      <trkpt lat="48.65919" lon="6.21677">
        <ele>219</ele>
        <time>2011-03-04T00:45:04Z</time>
      </trkpt>
      <trkpt lat="48.65923" lon="6.2166">
        <ele>219</ele>
        <time>2011-03-04T00:45:06Z</time>
      </trkpt>
      <trkpt lat="48.65919" lon="6.21644">
        <ele>219</ele>
        <time>2011-03-04T00:45:08Z</time>
      </trkpt>
      <trkpt lat="48.65905" lon="6.21634">
        <ele>219</ele>
        <time>2011-03-04T00:45:10Z</time>
      </trkpt>
      <trkpt lat="48.65896" lon="6.21638">
        <ele>219</ele>
        <time>2011-03-04T00:45:12Z</time>
      </trkpt>
      <trkpt lat="48.65845" lon="6.2152">
        <ele>221</ele>
        <time>2011-03-04T00:45:27Z</time>
      </trkpt>
      <trkpt lat="48.65836" lon="6.21488">
        <ele>221</ele>
        <time>2011-03-04T00:45:32Z</time>
      </trkpt>
      <trkpt lat="48.65834" lon="6.21468">
        <ele>221</ele>
        <time>2011-03-04T00:45:34Z</time>
      </trkpt>
      <trkpt lat="48.65844" lon="6.213">
        <ele>225</ele>
        <time>2011-03-04T00:45:57Z</time>
      </trkpt>
      <trkpt lat="48.65835" lon="6.21235">
        <ele>226</ele>
        <time>2011-03-04T00:46:06Z</time>
      </trkpt>
      <trkpt lat="48.65825" lon="6.21199">
        <ele>227</ele>
        <time>2011-03-04T00:46:11Z</time>
      </trkpt>
      <trkpt lat="48.65773" lon="6.21021">
        <ele>231</ele>
        <time>2011-03-04T00:46:37Z</time>
      </trkpt>
      <trkpt lat="48.65764" lon="6.20956">
        <ele>230</ele>
        <time>2011-03-04T00:46:43Z</time>
      </trkpt>
      <trkpt lat="48.65761" lon="6.20891">
        <ele>229</ele>
        <time>2011-03-04T00:46:49Z</time>
      </trkpt>
      <trkpt lat="48.65752" lon="6.20846">
        <ele>229</ele>
        <time>2011-03-04T00:46:53Z</time>
      </trkpt>
      <trkpt lat="48.65709" lon="6.20752">
        <ele>227</ele>
        <time>2011-03-04T00:47:03Z</time>
      </trkpt>
      <trkpt lat="48.6567" lon="6.20709">
        <ele>227</ele>
        <time>2011-03-04T00:47:10Z</time>
      </trkpt>
      <trkpt lat="48.65655" lon="6.20686">
        <ele>226</ele>
        <time>2011-03-04T00:47:13Z</time>
      </trkpt>
      <trkpt lat="48.65647" lon="6.20665">
        <ele>226</ele>
        <time>2011-03-04T00:47:15Z</time>
      </trkpt>
      <trkpt lat="48.65469" lon="6.20711">
        <ele>223</ele>
        <time>2011-03-04T00:47:39Z</time>
      </trkpt>
      <trkpt lat="48.65469" lon="6.20711">
        <ele>223</ele>
        <time>2011-03-04T00:47:40Z</time>
      </trkpt>
      <trkpt lat="48.64622" lon="6.2093">
        <ele>225</ele>
        <time>2011-03-04T00:49:39Z</time>
      </trkpt>
      <trkpt lat="48.64476" lon="6.20994">
        <ele>219</ele>
        <time>2011-03-04T00:50:00Z</time>
      </trkpt>
      <trkpt lat="48.64354" lon="6.21072">
        <ele>210</ele>
        <time>2011-03-04T00:50:17Z</time>
      </trkpt>
      <trkpt lat="48.64346" lon="6.21062">
        <ele>209</ele>
        <time>2011-03-04T00:50:19Z</time>
      </trkpt>
      <trkpt lat="48.64335" lon="6.21061">
        <ele>209</ele>
        <time>2011-03-04T00:50:20Z</time>
      </trkpt>
      <trkpt lat="48.64307" lon="6.21083">
        <ele>208</ele>
        <time>2011-03-04T00:50:25Z</time>
      </trkpt>
      <trkpt lat="48.64253" lon="6.21087">
        <ele>207</ele>
        <time>2011-03-04T00:50:32Z</time>
      </trkpt>
      <trkpt lat="48.64181" lon="6.21102">
        <ele>205</ele>
        <time>2011-03-04T00:50:41Z</time>
      </trkpt>
      <trkpt lat="48.63982" lon="6.21155">
        <ele>203</ele>
        <time>2011-03-04T00:51:08Z</time>
      </trkpt>
      <trkpt lat="48.63903" lon="6.21146">
        <ele>203</ele>
        <time>2011-03-04T00:51:20Z</time>
      </trkpt>
      <trkpt lat="48.63131" lon="6.21015">
        <ele>208</ele>
        <time>2011-03-04T00:53:15Z</time>
      </trkpt>
      <trkpt lat="48.63096" lon="6.20996">
        <ele>209</ele>
        <time>2011-03-04T00:53:23Z</time>
      </trkpt>
      <trkpt lat="48.63044" lon="6.20953">
        <ele>212</ele>
        <time>2011-03-04T00:53:37Z</time>
      </trkpt>
      <trkpt lat="48.62861" lon="6.20778">
        <ele>214</ele>
        <time>2011-03-04T00:54:11Z</time>
      </trkpt>
      <trkpt lat="48.62846" lon="6.20762">
        <ele>214</ele>
        <time>2011-03-04T00:54:14Z</time>
      </trkpt>
      <trkpt lat="48.62604" lon="6.20606">
        <ele>220</ele>
        <time>2011-03-04T00:55:03Z</time>
      </trkpt>
      <trkpt lat="48.62558" lon="6.20572">
        <ele>219</ele>
        <time>2011-03-04T00:55:10Z</time>
      </trkpt>
      <trkpt lat="48.62556" lon="6.20561">
        <ele>218</ele>
        <time>2011-03-04T00:55:11Z</time>
      </trkpt>
      <trkpt lat="48.62551" lon="6.20556">
        <ele>218</ele>
        <time>2011-03-04T00:55:12Z</time>
      </trkpt>
      <trkpt lat="48.62541" lon="6.20487">
        <ele>218</ele>
        <time>2011-03-04T00:55:18Z</time>
      </trkpt>
      <trkpt lat="48.62545" lon="6.20397">
        <ele>218</ele>
        <time>2011-03-04T00:55:26Z</time>
      </trkpt>
      <trkpt lat="48.62553" lon="6.20369">
        <ele>218</ele>
        <time>2011-03-04T00:55:29Z</time>
      </trkpt>
      <trkpt lat="48.62554" lon="6.20209">
        <ele>218</ele>
        <time>2011-03-04T00:55:43Z</time>
      </trkpt>
      <trkpt lat="48.62538" lon="6.20198">
        <ele>217</ele>
        <time>2011-03-04T00:55:45Z</time>
      </trkpt>
      <trkpt lat="48.62504" lon="6.20213">
        <ele>217</ele>
        <time>2011-03-04T00:55:50Z</time>
      </trkpt>
      <trkpt lat="48.62489" lon="6.20082">
        <ele>217</ele>
        <time>2011-03-04T00:56:01Z</time>
      </trkpt>
      <trkpt lat="48.62497" lon="6.20009">
        <ele>218</ele>
        <time>2011-03-04T00:56:12Z</time>
      </trkpt>
      <trkpt lat="48.62495" lon="6.1999">
        <ele>219</ele>
        <time>2011-03-04T00:56:15Z</time>
      </trkpt>
      <trkpt lat="48.62489" lon="6.19975">
        <ele>219</ele>
        <time>2011-03-04T00:56:17Z</time>
      </trkpt>
      <trkpt lat="48.62421" lon="6.19869">
        <ele>223</ele>
        <time>2011-03-04T00:56:39Z</time>
      </trkpt>
      <trkpt lat="48.62412" lon="6.19847">
        <ele>223</ele>
        <time>2011-03-04T00:56:43Z</time>
      </trkpt>
      <trkpt lat="48.62406" lon="6.19817">
        <ele>224</ele>
        <time>2011-03-04T00:56:47Z</time>
      </trkpt>
      <trkpt lat="48.62413" lon="6.19788">
        <ele>225</ele>
        <time>2011-03-04T00:56:52Z</time>
      </trkpt>
      <trkpt lat="48.62443" lon="6.19732">
        <ele>227</ele>
        <time>2011-03-04T00:57:02Z</time>
      </trkpt>
      <trkpt lat="48.62449" lon="6.19696">
        <ele>229</ele>
        <time>2011-03-04T00:57:11Z</time>
      </trkpt>
      <trkpt lat="48.62446" lon="6.19639">
        <ele>232</ele>
        <time>2011-03-04T00:57:23Z</time>
      </trkpt>
      <trkpt lat="48.62431" lon="6.19517">
        <ele>239</ele>
        <time>2011-03-04T00:57:51Z</time>
      </trkpt>
      <trkpt lat="48.62435" lon="6.19481">
        <ele>239</ele>
        <time>2011-03-04T00:57:54Z</time>
      </trkpt>
      <trkpt lat="48.62446" lon="6.19459">
        <ele>239</ele>
        <time>2011-03-04T00:57:57Z</time>
      </trkpt>
      <trkpt lat="48.62475" lon="6.19424">
        <ele>239</ele>
        <time>2011-03-04T00:58:03Z</time>
      </trkpt>
      <trkpt lat="48.62484" lon="6.194">
        <ele>240</ele>
        <time>2011-03-04T00:58:06Z</time>
      </trkpt>
      <trkpt lat="48.62487" lon="6.19375">
        <ele>241</ele>
        <time>2011-03-04T00:58:12Z</time>
      </trkpt>
      <trkpt lat="48.6248" lon="6.19319">
        <ele>245</ele>
        <time>2011-03-04T00:58:26Z</time>
      </trkpt>
      <trkpt lat="48.62457" lon="6.19232">
        <ele>251</ele>
        <time>2011-03-04T00:58:48Z</time>
      </trkpt>
      <trkpt lat="48.624" lon="6.18978">
        <ele>260</ele>
        <time>2011-03-04T00:59:33Z</time>
      </trkpt>
      <trkpt lat="48.62406" lon="6.18903">
        <ele>261</ele>
        <time>2011-03-04T00:59:44Z</time>
      </trkpt>
      <trkpt lat="48.62406" lon="6.18857">
        <ele>263</ele>
        <time>2011-03-04T00:59:51Z</time>
      </trkpt>
      <trkpt lat="48.62406" lon="6.18857">
        <ele>263</ele>
        <time>2011-03-04T00:59:52Z</time>
      </trkpt>
      <trkpt lat="48.62397" lon="6.18773">
        <ele>268</ele>
        <time>2011-03-04T01:00:14Z</time>
      </trkpt>
      <trkpt lat="48.62382" lon="6.18684">
        <ele>275</ele>
        <time>2011-03-04T01:00:37Z</time>
      </trkpt>
      <trkpt lat="48.62352" lon="6.18548">
        <ele>280</ele>
        <time>2011-03-04T01:01:01Z</time>
      </trkpt>
      <trkpt lat="48.62301" lon="6.18284">
        <ele>276</ele>
        <time>2011-03-04T01:01:26Z</time>
      </trkpt>
      <trkpt lat="48.62267" lon="6.18138">
        <ele>277</ele>
        <time>2011-03-04T01:01:42Z</time>
      </trkpt>
      <trkpt lat="48.62201" lon="6.17952">
        <ele>275</ele>
        <time>2011-03-04T01:02:00Z</time>
      </trkpt>
      <trkpt lat="48.6201" lon="6.17966">
        <ele>273</ele>
        <time>2011-03-04T01:02:26Z</time>
      </trkpt>
      <trkpt lat="48.61914" lon="6.17885">
        <ele>264</ele>
        <time>2011-03-04T01:02:40Z</time>
      </trkpt>
      <trkpt lat="48.61817" lon="6.1784">
        <ele>258</ele>
        <time>2011-03-04T01:02:54Z</time>
      </trkpt>
      <trkpt lat="48.61833" lon="6.17807">
        <ele>258</ele>
        <time>2011-03-04T01:02:58Z</time>
      </trkpt>
      <trkpt lat="48.61852" lon="6.17805">
        <ele>258</ele>
        <time>2011-03-04T01:03:00Z</time>
      </trkpt>
      <trkpt lat="48.61864" lon="6.17789">
        <ele>258</ele>
        <time>2011-03-04T01:03:02Z</time>
      </trkpt>
      <trkpt lat="48.61867" lon="6.17773">
        <ele>258</ele>
        <time>2011-03-04T01:03:04Z</time>
      </trkpt>
      <trkpt lat="48.61863" lon="6.17752">
        <ele>258</ele>
        <time>2011-03-04T01:03:06Z</time>
      </trkpt>
      <trkpt lat="48.6185" lon="6.17745">
        <ele>258</ele>
        <time>2011-03-04T01:03:08Z</time>
      </trkpt>
      <trkpt lat="48.61828" lon="6.17754">
        <ele>258</ele>
        <time>2011-03-04T01:03:11Z</time>
      </trkpt>
      <trkpt lat="48.61786" lon="6.17703">
        <ele>258</ele>
        <time>2011-03-04T01:03:18Z</time>
      </trkpt>
      <trkpt lat="48.61773" lon="6.17701">
        <ele>258</ele>
        <time>2011-03-04T01:03:20Z</time>
      </trkpt>
      <trkpt lat="48.61722" lon="6.17659">
        <ele>259</ele>
        <time>2011-03-04T01:03:32Z</time>
      </trkpt>
      <trkpt lat="48.61685" lon="6.17646">
        <ele>261</ele>
        <time>2011-03-04T01:03:40Z</time>
      </trkpt>
      <trkpt lat="48.61587" lon="6.17634">
        <ele>267</ele>
        <time>2011-03-04T01:04:07Z</time>
      </trkpt>
      <trkpt lat="48.61513" lon="6.17641">
        <ele>268</ele>
        <time>2011-03-04T01:04:20Z</time>
      </trkpt>
      <trkpt lat="48.61458" lon="6.17652">
        <ele>269</ele>
        <time>2011-03-04T01:04:29Z</time>
      </trkpt>
      <trkpt lat="48.61398" lon="6.17685">
        <ele>266</ele>
        <time>2011-03-04T01:04:38Z</time>
      </trkpt>
      <trkpt lat="48.61379" lon="6.1769">
        <ele>265</ele>
        <time>2011-03-04T01:04:40Z</time>
      </trkpt>
      <trkpt lat="48.61353" lon="6.17689">
        <ele>264</ele>
        <time>2011-03-04T01:04:44Z</time>
      </trkpt>
      <trkpt lat="48.61295" lon="6.17655">
        <ele>260</ele>
        <time>2011-03-04T01:04:52Z</time>
      </trkpt>
      <trkpt lat="48.61262" lon="6.1762">
        <ele>259</ele>
        <time>2011-03-04T01:04:57Z</time>
      </trkpt>
      <trkpt lat="48.61247" lon="6.17595">
        <ele>258</ele>
        <time>2011-03-04T01:05:00Z</time>
      </trkpt>
      <trkpt lat="48.61219" lon="6.17522">
        <ele>257</ele>
        <time>2011-03-04T01:05:08Z</time>
      </trkpt>
      <trkpt lat="48.61186" lon="6.17469">
        <ele>256</ele>
        <time>2011-03-04T01:05:14Z</time>
      </trkpt>
      <trkpt lat="48.61141" lon="6.1744">
        <ele>252</ele>
        <time>2011-03-04T01:05:21Z</time>
      </trkpt>
      <trkpt lat="48.61006" lon="6.17393">
        <ele>242</ele>
        <time>2011-03-04T01:05:39Z</time>
      </trkpt>
      <trkpt lat="48.60997" lon="6.17385">
        <ele>241</ele>
        <time>2011-03-04T01:05:41Z</time>
      </trkpt>
      <trkpt lat="48.60963" lon="6.17378">
        <ele>240</ele>
        <time>2011-03-04T01:05:45Z</time>
      </trkpt>
      <trkpt lat="48.60944" lon="6.17365">
        <ele>239</ele>
        <time>2011-03-04T01:05:48Z</time>
      </trkpt>
      <trkpt lat="48.60936" lon="6.17339">
        <ele>238</ele>
        <time>2011-03-04T01:05:51Z</time>
      </trkpt>
      <trkpt lat="48.60926" lon="6.17331">
        <ele>238</ele>
        <time>2011-03-04T01:05:52Z</time>
      </trkpt>
      <trkpt lat="48.60915" lon="6.17328">
        <ele>238</ele>
        <time>2011-03-04T01:05:54Z</time>
      </trkpt>
      <trkpt lat="48.60896" lon="6.17338">
        <ele>238</ele>
        <time>2011-03-04T01:05:58Z</time>
      </trkpt>
      <trkpt lat="48.60887" lon="6.17357">
        <ele>238</ele>
        <time>2011-03-04T01:06:00Z</time>
      </trkpt>
      <trkpt lat="48.60885" lon="6.17375">
        <ele>238</ele>
        <time>2011-03-04T01:06:02Z</time>
      </trkpt>
      <trkpt lat="48.60751" lon="6.17344">
        <ele>241</ele>
        <time>2011-03-04T01:06:25Z</time>
      </trkpt>
      <trkpt lat="48.60467" lon="6.1729">
        <ele>247</ele>
        <time>2011-03-04T01:07:18Z</time>
      </trkpt>
      <trkpt lat="48.60108" lon="6.17149">
        <ele>259</ele>
        <time>2011-03-04T01:08:36Z</time>
      </trkpt>
      <trkpt lat="48.60046" lon="6.17097">
        <ele>260</ele>
        <time>2011-03-04T01:08:48Z</time>
      </trkpt>
      <trkpt lat="48.59993" lon="6.17042">
        <ele>261</ele>
        <time>2011-03-04T01:08:59Z</time>
      </trkpt>
      <trkpt lat="48.599" lon="6.16961">
        <ele>260</ele>
        <time>2011-03-04T01:09:14Z</time>
      </trkpt>
      <trkpt lat="48.599" lon="6.16961">
        <ele>260</ele>
        <time>2011-03-04T01:09:15Z</time>
      </trkpt>
      <trkpt lat="48.59756" lon="6.16853">
        <ele>259</ele>
        <time>2011-03-04T01:09:36Z</time>
      </trkpt>
      <trkpt lat="48.59738" lon="6.16847">
        <ele>258</ele>
        <time>2011-03-04T01:09:38Z</time>
      </trkpt>
      <trkpt lat="48.597" lon="6.16853">
        <ele>258</ele>
        <time>2011-03-04T01:09:44Z</time>
      </trkpt>
      <trkpt lat="48.59521" lon="6.1692">
        <ele>258</ele>
        <time>2011-03-04T01:10:08Z</time>
      </trkpt>
      <trkpt lat="48.5926" lon="6.16914">
        <ele>256</ele>
        <time>2011-03-04T01:10:43Z</time>
      </trkpt>
      <trkpt lat="48.59209" lon="6.16917">
        <ele>252</ele>
        <time>2011-03-04T01:10:50Z</time>
      </trkpt>
      <trkpt lat="48.59169" lon="6.16946">
        <ele>249</ele>
        <time>2011-03-04T01:10:56Z</time>
      </trkpt>
      <trkpt lat="48.58898" lon="6.17226">
        <ele>228</ele>
        <time>2011-03-04T01:11:40Z</time>
      </trkpt>
      <trkpt lat="48.5863" lon="6.17489">
        <ele>225</ele>
        <time>2011-03-04T01:12:22Z</time>
      </trkpt>
      <trkpt lat="48.58562" lon="6.17517">
        <ele>225</ele>
        <time>2011-03-04T01:12:32Z</time>
      </trkpt>
      <trkpt lat="48.58476" lon="6.17572">
        <ele>225</ele>
        <time>2011-03-04T01:12:44Z</time>
      </trkpt>
      <trkpt lat="48.58411" lon="6.1764">
        <ele>226</ele>
        <time>2011-03-04T01:12:59Z</time>
      </trkpt>
      <trkpt lat="48.58284" lon="6.17751">
        <ele>230</ele>
        <time>2011-03-04T01:13:26Z</time>
      </trkpt>
      <trkpt lat="48.58252" lon="6.17757">
        <ele>230</ele>
        <time>2011-03-04T01:13:31Z</time>
      </trkpt>
      <trkpt lat="48.58183" lon="6.17803">
        <ele>231</ele>
        <time>2011-03-04T01:13:43Z</time>
      </trkpt>
      <trkpt lat="48.58189" lon="6.17835">
        <ele>232</ele>
        <time>2011-03-04T01:13:50Z</time>
      </trkpt>
      <trkpt lat="48.58242" lon="6.17939">
        <ele>239</ele>
        <time>2011-03-04T01:14:17Z</time>
      </trkpt>
      <trkpt lat="48.58282" lon="6.18068">
        <ele>243</ele>
        <time>2011-03-04T01:14:39Z</time>
      </trkpt>
      <trkpt lat="48.58305" lon="6.18133">
        <ele>245</ele>
        <time>2011-03-04T01:14:51Z</time>
      </trkpt>
      <trkpt lat="48.58355" lon="6.18253">
        <ele>250</ele>
        <time>2011-03-04T01:15:15Z</time>
      </trkpt>
      <trkpt lat="48.5836" lon="6.1828">
        <ele>250</ele>
        <time>2011-03-04T01:15:18Z</time>
      </trkpt>
      <trkpt lat="48.58361" lon="6.18308">
        <ele>250</ele>
        <time>2011-03-04T01:15:20Z</time>
      </trkpt>
      <trkpt lat="48.58347" lon="6.18313">
        <ele>250</ele>
        <time>2011-03-04T01:15:23Z</time>
      </trkpt>
      <trkpt lat="48.5829" lon="6.18276">
        <ele>250</ele>
        <time>2011-03-04T01:15:32Z</time>
      </trkpt>
      <trkpt lat="48.58274" lon="6.18261">
        <ele>250</ele>
        <time>2011-03-04T01:15:35Z</time>
      </trkpt>
      <trkpt lat="48.58253" lon="6.18257">
        <ele>251</ele>
        <time>2011-03-04T01:15:38Z</time>
      </trkpt>
      <trkpt lat="48.58234" lon="6.18266">
        <ele>251</ele>
        <time>2011-03-04T01:15:42Z</time>
      </trkpt>
      <trkpt lat="48.58223" lon="6.18286">
        <ele>252</ele>
        <time>2011-03-04T01:15:46Z</time>
      </trkpt>
      <trkpt lat="48.58222" lon="6.18391">
        <ele>255</ele>
        <time>2011-03-04T01:16:02Z</time>
      </trkpt>
      <trkpt lat="48.5823" lon="6.1863">
        <ele>271</ele>
        <time>2011-03-04T01:17:01Z</time>
      </trkpt>
      <trkpt lat="48.58243" lon="6.18747">
        <ele>275</ele>
        <time>2011-03-04T01:17:23Z</time>
      </trkpt>
      <trkpt lat="48.58258" lon="6.18809">
        <ele>278</ele>
        <time>2011-03-04T01:17:34Z</time>
      </trkpt>
      <trkpt lat="48.58292" lon="6.18914">
        <ele>282</ele>
        <time>2011-03-04T01:17:57Z</time>
      </trkpt>
      <trkpt lat="48.58321" lon="6.19026">
        <ele>288</ele>
        <time>2011-03-04T01:18:19Z</time>
      </trkpt>
      <trkpt lat="48.58382" lon="6.1931">
        <ele>297</ele>
        <time>2011-03-04T01:19:07Z</time>
      </trkpt>
      <trkpt lat="48.58389" lon="6.19442">
        <ele>300</ele>
        <time>2011-03-04T01:19:28Z</time>
      </trkpt>
      <trkpt lat="48.5839" lon="6.19635">
        <ele>306</ele>
        <time>2011-03-04T01:19:58Z</time>
      </trkpt>
      <trkpt lat="48.58387" lon="6.19665">
        <ele>306</ele>
        <time>2011-03-04T01:20:03Z</time>
      </trkpt>
      <trkpt lat="48.58374" lon="6.19692">
        <ele>307</ele>
        <time>2011-03-04T01:20:08Z</time>
      </trkpt>
      <trkpt lat="48.58342" lon="6.19726">
        <ele>309</ele>
        <time>2011-03-04T01:20:18Z</time>
      </trkpt>
      <trkpt lat="48.58319" lon="6.19742">
        <ele>311</ele>
        <time>2011-03-04T01:20:24Z</time>
      </trkpt>
      <trkpt lat="48.58303" lon="6.19761">
        <ele>311</ele>
        <time>2011-03-04T01:20:27Z</time>
      </trkpt>
      <trkpt lat="48.58281" lon="6.19799">
        <ele>311</ele>
        <time>2011-03-04T01:20:33Z</time>
      </trkpt>
      <trkpt lat="48.57981" lon="6.2047">
        <ele>318</ele>
        <time>2011-03-04T01:21:59Z</time>
      </trkpt>
      <trkpt lat="48.57962" lon="6.20544">
        <ele>318</ele>
        <time>2011-03-04T01:22:09Z</time>
      </trkpt>
      <trkpt lat="48.57958" lon="6.20625">
        <ele>320</ele>
        <time>2011-03-04T01:22:18Z</time>
      </trkpt>
      <trkpt lat="48.57962" lon="6.2066">
        <ele>320</ele>
        <time>2011-03-04T01:22:24Z</time>
      </trkpt>
      <trkpt lat="48.57986" lon="6.20734">
        <ele>322</ele>
        <time>2011-03-04T01:22:35Z</time>
      </trkpt>
      <trkpt lat="48.58011" lon="6.20836">
        <ele>325</ele>
        <time>2011-03-04T01:22:51Z</time>
      </trkpt>
      <trkpt lat="48.58028" lon="6.20929">
        <ele>325</ele>
        <time>2011-03-04T01:23:01Z</time>
      </trkpt>
      <trkpt lat="48.58036" lon="6.2103">
        <ele>327</ele>
        <time>2011-03-04T01:23:13Z</time>
      </trkpt>
      <trkpt lat="48.58049" lon="6.21126">
        <ele>328</ele>
        <time>2011-03-04T01:23:24Z</time>
      </trkpt>
      <trkpt lat="48.58065" lon="6.21199">
        <ele>329</ele>
        <time>2011-03-04T01:23:33Z</time>
      </trkpt>
      <trkpt lat="48.58089" lon="6.21278">
        <ele>330</ele>
        <time>2011-03-04T01:23:44Z</time>
      </trkpt>
      <trkpt lat="48.58123" lon="6.21355">
        <ele>332</ele>
        <time>2011-03-04T01:23:56Z</time>
      </trkpt>
      <trkpt lat="48.58161" lon="6.21422">
        <ele>330</ele>
        <time>2011-03-04T01:24:04Z</time>
      </trkpt>
      <trkpt lat="48.58185" lon="6.21494">
        <ele>329</ele>
        <time>2011-03-04T01:24:11Z</time>
      </trkpt>
      <trkpt lat="48.58203" lon="6.21709">
        <ele>325</ele>
        <time>2011-03-04T01:24:30Z</time>
      </trkpt>
      <trkpt lat="48.58211" lon="6.21762">
        <ele>324</ele>
        <time>2011-03-04T01:24:35Z</time>
      </trkpt>
      <trkpt lat="48.58218" lon="6.2188">
        <ele>323</ele>
        <time>2011-03-04T01:24:45Z</time>
      </trkpt>
      <trkpt lat="48.58215" lon="6.21903">
        <ele>322</ele>
        <time>2011-03-04T01:24:48Z</time>
      </trkpt>
      <trkpt lat="48.58104" lon="6.2231">
        <ele>310</ele>
        <time>2011-03-04T01:25:26Z</time>
      </trkpt>
      <trkpt lat="48.58103" lon="6.22337">
        <ele>308</ele>
        <time>2011-03-04T01:25:29Z</time>
      </trkpt>
      <trkpt lat="48.58106" lon="6.22345">
        <ele>308</ele>
        <time>2011-03-04T01:25:30Z</time>
      </trkpt>
      <trkpt lat="48.58119" lon="6.22351">
        <ele>307</ele>
        <time>2011-03-04T01:25:31Z</time>
      </trkpt>
      <trkpt lat="48.58166" lon="6.22329">
        <ele>304</ele>
        <time>2011-03-04T01:25:38Z</time>
      </trkpt>
      <trkpt lat="48.5821" lon="6.22299">
        <ele>301</ele>
        <time>2011-03-04T01:25:45Z</time>
      </trkpt>
      <trkpt lat="48.58227" lon="6.22298">
        <ele>299</ele>
        <time>2011-03-04T01:25:47Z</time>
      </trkpt>
      <trkpt lat="48.58239" lon="6.22308">
        <ele>299</ele>
        <time>2011-03-04T01:25:49Z</time>
      </trkpt>
      <trkpt lat="48.58242" lon="6.22323">
        <ele>298</ele>
        <time>2011-03-04T01:25:50Z</time>
      </trkpt>
      <trkpt lat="48.58215" lon="6.22397">
        <ele>295</ele>
        <time>2011-03-04T01:25:57Z</time>
      </trkpt>
      <trkpt lat="48.58214" lon="6.22422">
        <ele>294</ele>
        <time>2011-03-04T01:26:00Z</time>
      </trkpt>
      <trkpt lat="48.58248" lon="6.22486">
        <ele>291</ele>
        <time>2011-03-04T01:26:07Z</time>
      </trkpt>
      <trkpt lat="48.58279" lon="6.22531">
        <ele>290</ele>
        <time>2011-03-04T01:26:13Z</time>
      </trkpt>
      <trkpt lat="48.58335" lon="6.22739">
        <ele>289</ele>
        <time>2011-03-04T01:26:32Z</time>
      </trkpt>
      <trkpt lat="48.58367" lon="6.22831">
        <ele>288</ele>
        <time>2011-03-04T01:26:42Z</time>
      </trkpt>
      <trkpt lat="48.58393" lon="6.2288">
        <ele>288</ele>
        <time>2011-03-04T01:26:47Z</time>
      </trkpt>
      <trkpt lat="48.58545" lon="6.23065">
        <ele>285</ele>
        <time>2011-03-04T01:27:13Z</time>
      </trkpt>
      <trkpt lat="48.58545" lon="6.23065">
        <ele>285</ele>
        <time>2011-03-04T01:27:14Z</time>
      </trkpt>
      <trkpt lat="48.58584" lon="6.23118">
        <ele>285</ele>
        <time>2011-03-04T01:27:22Z</time>
      </trkpt>
      <trkpt lat="48.586" lon="6.23165">
        <ele>285</ele>
        <time>2011-03-04T01:27:27Z</time>
      </trkpt>
      <trkpt lat="48.58618" lon="6.23256">
        <ele>286</ele>
        <time>2011-03-04T01:27:37Z</time>
      </trkpt>
      <trkpt lat="48.58627" lon="6.23357">
        <ele>287</ele>
        <time>2011-03-04T01:27:50Z</time>
      </trkpt>
      <trkpt lat="48.58644" lon="6.23422">
        <ele>289</ele>
        <time>2011-03-04T01:27:59Z</time>
      </trkpt>
      <trkpt lat="48.5872" lon="6.23583">
        <ele>288</ele>
        <time>2011-03-04T01:28:17Z</time>
      </trkpt>
      <trkpt lat="48.58755" lon="6.23671">
        <ele>288</ele>
        <time>2011-03-04T01:28:26Z</time>
      </trkpt>
      <trkpt lat="48.58812" lon="6.23795">
        <ele>288</ele>
        <time>2011-03-04T01:28:39Z</time>
      </trkpt>
      <trkpt lat="48.58944" lon="6.24226">
        <ele>295</ele>
        <time>2011-03-04T01:29:38Z</time>
      </trkpt>
      <trkpt lat="48.58972" lon="6.24288">
        <ele>295</ele>
        <time>2011-03-04T01:29:45Z</time>
      </trkpt>
      <trkpt lat="48.59016" lon="6.24367">
        <ele>296</ele>
        <time>2011-03-04T01:29:56Z</time>
      </trkpt>
      <trkpt lat="48.59052" lon="6.24398">
        <ele>296</ele>
        <time>2011-03-04T01:30:03Z</time>
      </trkpt>
      <trkpt lat="48.58866" lon="6.24551">
        <ele>299</ele>
        <time>2011-03-04T01:30:37Z</time>
      </trkpt>
      <trkpt lat="48.5867" lon="6.24609">
        <ele>304</ele>
        <time>2011-03-04T01:31:16Z</time>
      </trkpt>
      <trkpt lat="48.58577" lon="6.24703">
        <ele>307</ele>
        <time>2011-03-04T01:31:38Z</time>
      </trkpt>
      <trkpt lat="48.58463" lon="6.24786">
        <ele>311</ele>
        <time>2011-03-04T01:32:04Z</time>
      </trkpt>
      <trkpt lat="48.58448" lon="6.24793">
        <ele>311</ele>
        <time>2011-03-04T01:32:07Z</time>
      </trkpt>
      <trkpt lat="48.58355" lon="6.24812">
        <ele>312</ele>
        <time>2011-03-04T01:32:21Z</time>
      </trkpt>
      <trkpt lat="48.58331" lon="6.24826">
        <ele>312</ele>
        <time>2011-03-04T01:32:26Z</time>
      </trkpt>
      <trkpt lat="48.58311" lon="6.24846">
        <ele>313</ele>
        <time>2011-03-04T01:32:31Z</time>
      </trkpt>
      <trkpt lat="48.58238" lon="6.25016">
        <ele>316</ele>
        <time>2011-03-04T01:32:56Z</time>
      </trkpt>
      <trkpt lat="48.5819" lon="6.25151">
        <ele>318</ele>
        <time>2011-03-04T01:33:14Z</time>
      </trkpt>
      <trkpt lat="48.58012" lon="6.25714">
        <ele>326</ele>
        <time>2011-03-04T01:34:28Z</time>
      </trkpt>
      <trkpt lat="48.5796" lon="6.25859">
        <ele>324</ele>
        <time>2011-03-04T01:34:43Z</time>
      </trkpt>
      <trkpt lat="48.57858" lon="6.2621">
        <ele>332</ele>
        <time>2011-03-04T01:35:36Z</time>
      </trkpt>
      <trkpt lat="48.57912" lon="6.26257">
        <ele>331</ele>
        <time>2011-03-04T01:35:44Z</time>
      </trkpt>
      <trkpt lat="48.58014" lon="6.26325">
        <ele>330</ele>
        <time>2011-03-04T01:35:59Z</time>
      </trkpt>
      <trkpt lat="48.58036" lon="6.26352">
        <ele>330</ele>
        <time>2011-03-04T01:36:03Z</time>
      </trkpt>
      <trkpt lat="48.58061" lon="6.2643">
        <ele>330</ele>
        <time>2011-03-04T01:36:11Z</time>
      </trkpt>
      <trkpt lat="48.58108" lon="6.26623">
        <ele>331</ele>
        <time>2011-03-04T01:36:31Z</time>
      </trkpt>
      <trkpt lat="48.58108" lon="6.26623">
        <ele>331</ele>
        <time>2011-03-04T01:36:32Z</time>
      </trkpt>
      <trkpt lat="48.58122" lon="6.26695">
        <ele>329</ele>
        <time>2011-03-04T01:36:39Z</time>
      </trkpt>
      <trkpt lat="48.58138" lon="6.26752">
        <ele>329</ele>
        <time>2011-03-04T01:36:44Z</time>
      </trkpt>
      <trkpt lat="48.5818" lon="6.27009">
        <ele>316</ele>
        <time>2011-03-04T01:37:08Z</time>
      </trkpt>
      <trkpt lat="48.58198" lon="6.27097">
        <ele>308</ele>
        <time>2011-03-04T01:37:16Z</time>
      </trkpt>
      <trkpt lat="48.58245" lon="6.27164">
        <ele>300</ele>
        <time>2011-03-04T01:37:24Z</time>
      </trkpt>
      <trkpt lat="48.58289" lon="6.27216">
        <ele>294</ele>
        <time>2011-03-04T01:37:32Z</time>
      </trkpt>
      <trkpt lat="48.58306" lon="6.27245">
        <ele>292</ele>
        <time>2011-03-04T01:37:35Z</time>
      </trkpt>
      <trkpt lat="48.58309" lon="6.2728">
        <ele>290</ele>
        <time>2011-03-04T01:37:38Z</time>
      </trkpt>
      <trkpt lat="48.58305" lon="6.27329">
        <ele>286</ele>
        <time>2011-03-04T01:37:43Z</time>
      </trkpt>
      <trkpt lat="48.58307" lon="6.27376">
        <ele>283</ele>
        <time>2011-03-04T01:37:47Z</time>
      </trkpt>
      <trkpt lat="48.58321" lon="6.27445">
        <ele>278</ele>
        <time>2011-03-04T01:37:53Z</time>
      </trkpt>
      <trkpt lat="48.58333" lon="6.2748">
        <ele>276</ele>
        <time>2011-03-04T01:37:57Z</time>
      </trkpt>
      <trkpt lat="48.58338" lon="6.27536">
        <ele>274</ele>
        <time>2011-03-04T01:38:02Z</time>
      </trkpt>
      <trkpt lat="48.58336" lon="6.27684">
        <ele>268</ele>
        <time>2011-03-04T01:38:15Z</time>
      </trkpt>
      <trkpt lat="48.58339" lon="6.27786">
        <ele>266</ele>
        <time>2011-03-04T01:38:24Z</time>
      </trkpt>
      <trkpt lat="48.5835" lon="6.27812">
        <ele>266</ele>
        <time>2011-03-04T01:38:27Z</time>
      </trkpt>
      <trkpt lat="48.58457" lon="6.27969">
        <ele>263</ele>
        <time>2011-03-04T01:38:46Z</time>
      </trkpt>
      <trkpt lat="48.58486" lon="6.28005">
        <ele>265</ele>
        <time>2011-03-04T01:38:57Z</time>
      </trkpt>
      <trkpt lat="48.58535" lon="6.28054">
        <ele>269</ele>
        <time>2011-03-04T01:39:14Z</time>
      </trkpt>
      <trkpt lat="48.58604" lon="6.28147">
        <ele>276</ele>
        <time>2011-03-04T01:39:43Z</time>
      </trkpt>
      <trkpt lat="48.58655" lon="6.28169">
        <ele>276</ele>
        <time>2011-03-04T01:39:50Z</time>
      </trkpt>
      <trkpt lat="48.5871" lon="6.28236">
        <ele>276</ele>
        <time>2011-03-04T01:39:59Z</time>
      </trkpt>
      <trkpt lat="48.5875" lon="6.28277">
        <ele>273</ele>
        <time>2011-03-04T01:40:06Z</time>
      </trkpt>
      <trkpt lat="48.58829" lon="6.28363">
        <ele>269</ele>
        <time>2011-03-04T01:40:19Z</time>
      </trkpt>
      <trkpt lat="48.58918" lon="6.28499">
        <ele>258</ele>
        <time>2011-03-04T01:40:36Z</time>
      </trkpt>
      <trkpt lat="48.58966" lon="6.2859">
        <ele>254</ele>
        <time>2011-03-04T01:40:46Z</time>
      </trkpt>
      <trkpt lat="48.58978" lon="6.28606">
        <ele>254</ele>
        <time>2011-03-04T01:40:48Z</time>
      </trkpt>
      <trkpt lat="48.59002" lon="6.28628">
        <ele>252</ele>
        <time>2011-03-04T01:40:52Z</time>
      </trkpt>
      <trkpt lat="48.5906" lon="6.28664">
        <ele>250</ele>
        <time>2011-03-04T01:41:00Z</time>
      </trkpt>
      <trkpt lat="48.5909" lon="6.28691">
        <ele>249</ele>
        <time>2011-03-04T01:41:05Z</time>
      </trkpt>
      <trkpt lat="48.59149" lon="6.2879">
        <ele>247</ele>
        <time>2011-03-04T01:41:17Z</time>
      </trkpt>
      <trkpt lat="48.59191" lon="6.28852">
        <ele>245</ele>
        <time>2011-03-04T01:41:25Z</time>
      </trkpt>
      <trkpt lat="48.59231" lon="6.28899">
        <ele>245</ele>
        <time>2011-03-04T01:41:31Z</time>
      </trkpt>
      <trkpt lat="48.59297" lon="6.28951">
        <ele>244</ele>
        <time>2011-03-04T01:41:41Z</time>
      </trkpt>
      <trkpt lat="48.59332" lon="6.28995">
        <ele>244</ele>
        <time>2011-03-04T01:41:47Z</time>
      </trkpt>
      <trkpt lat="48.59384" lon="6.29076">
        <ele>242</ele>
        <time>2011-03-04T01:41:57Z</time>
      </trkpt>
      <trkpt lat="48.59428" lon="6.29154">
        <ele>242</ele>
        <time>2011-03-04T01:42:06Z</time>
      </trkpt>
      <trkpt lat="48.59508" lon="6.29321">
        <ele>240</ele>
        <time>2011-03-04T01:42:25Z</time>
      </trkpt>
      <trkpt lat="48.59515" lon="6.29345">
        <ele>240</ele>
        <time>2011-03-04T01:42:27Z</time>
      </trkpt>
      <trkpt lat="48.59522" lon="6.29354">
        <ele>240</ele>
        <time>2011-03-04T01:42:28Z</time>
      </trkpt>
      <trkpt lat="48.59536" lon="6.29364">
        <ele>240</ele>
        <time>2011-03-04T01:42:30Z</time>
      </trkpt>
      <trkpt lat="48.59551" lon="6.29364">
        <ele>240</ele>
        <time>2011-03-04T01:42:32Z</time>
      </trkpt>
      <trkpt lat="48.59599" lon="6.29333">
        <ele>240</ele>
        <time>2011-03-04T01:42:39Z</time>
      </trkpt>
      <trkpt lat="48.5962" lon="6.29332">
        <ele>239</ele>
        <time>2011-03-04T01:42:42Z</time>
      </trkpt>
      <trkpt lat="48.59697" lon="6.29417">
        <ele>239</ele>
        <time>2011-03-04T01:42:55Z</time>
      </trkpt>
      <trkpt lat="48.59837" lon="6.29523">
        <ele>238</ele>
        <time>2011-03-04T01:43:16Z</time>
      </trkpt>
      <trkpt lat="48.59945" lon="6.296">
        <ele>237</ele>
        <time>2011-03-04T01:43:32Z</time>
      </trkpt>
      <trkpt lat="48.59984" lon="6.29619">
        <ele>236</ele>
        <time>2011-03-04T01:43:37Z</time>
      </trkpt>
      <trkpt lat="48.60181" lon="6.29739">
        <ele>231</ele>
        <time>2011-03-04T01:44:05Z</time>
      </trkpt>
      <trkpt lat="48.60241" lon="6.29769">
        <ele>230</ele>
        <time>2011-03-04T01:44:14Z</time>
      </trkpt>
      <trkpt lat="48.60258" lon="6.29773">
        <ele>230</ele>
        <time>2011-03-04T01:44:16Z</time>
      </trkpt>
      <trkpt lat="48.60312" lon="6.29764">
        <ele>230</ele>
        <time>2011-03-04T01:44:23Z</time>
      </trkpt>
      <trkpt lat="48.60494" lon="6.2975">
        <ele>227</ele>
        <time>2011-03-04T01:44:48Z</time>
      </trkpt>
      <trkpt lat="48.60554" lon="6.29777">
        <ele>226</ele>
        <time>2011-03-04T01:44:56Z</time>
      </trkpt>
      <trkpt lat="48.6058" lon="6.29772">
        <ele>225</ele>
        <time>2011-03-04T01:45:00Z</time>
      </trkpt>
      <trkpt lat="48.60683" lon="6.29688">
        <ele>224</ele>
        <time>2011-03-04T01:45:15Z</time>
      </trkpt>
      <trkpt lat="48.60735" lon="6.29669">
        <ele>223</ele>
        <time>2011-03-04T01:45:22Z</time>
      </trkpt>
      <trkpt lat="48.60854" lon="6.29642">
        <ele>223</ele>
        <time>2011-03-04T01:45:39Z</time>
      </trkpt>
      <trkpt lat="48.60888" lon="6.29642">
        <ele>222</ele>
        <time>2011-03-04T01:45:43Z</time>
      </trkpt>
      <trkpt lat="48.60934" lon="6.29651">
        <ele>222</ele>
        <time>2011-03-04T01:45:49Z</time>
      </trkpt>
      <trkpt lat="48.60963" lon="6.2964">
        <ele>222</ele>
        <time>2011-03-04T01:45:53Z</time>
      </trkpt>
      <trkpt lat="48.60998" lon="6.29617">
        <ele>222</ele>
        <time>2011-03-04T01:45:59Z</time>
      </trkpt>
      <trkpt lat="48.61015" lon="6.29615">
        <ele>222</ele>
        <time>2011-03-04T01:46:01Z</time>
      </trkpt>
      <trkpt lat="48.61032" lon="6.29625">
        <ele>222</ele>
        <time>2011-03-04T01:46:04Z</time>
      </trkpt>
      <trkpt lat="48.61123" lon="6.29707">
        <ele>223</ele>
        <time>2011-03-04T01:46:20Z</time>
      </trkpt>
      <trkpt lat="48.61227" lon="6.29777">
        <ele>221</ele>
        <time>2011-03-04T01:46:35Z</time>
      </trkpt>
      <trkpt lat="48.61366" lon="6.29801">
        <ele>219</ele>
        <time>2011-03-04T01:46:54Z</time>
      </trkpt>
      <trkpt lat="48.61425" lon="6.29799">
        <ele>218</ele>
        <time>2011-03-04T01:47:01Z</time>
      </trkpt>
      <trkpt lat="48.61526" lon="6.29812">
        <ele>218</ele>
        <time>2011-03-04T01:47:15Z</time>
      </trkpt>
      <trkpt lat="48.61609" lon="6.29834">
        <ele>217</ele>
        <time>2011-03-04T01:47:26Z</time>
      </trkpt>
      <trkpt lat="48.61698" lon="6.29876">
        <ele>217</ele>
        <time>2011-03-04T01:47:39Z</time>
      </trkpt>
      <trkpt lat="48.61869" lon="6.29911">
        <ele>221</ele>
        <time>2011-03-04T01:48:11Z</time>
      </trkpt>
      <trkpt lat="48.62054" lon="6.29997">
        <ele>217</ele>
        <time>2011-03-04T01:48:37Z</time>
      </trkpt>
      <trkpt lat="48.62054" lon="6.29997">
        <ele>217</ele>
        <time>2011-03-04T01:48:38Z</time>
      </trkpt>
      <trkpt lat="48.62088" lon="6.30012">
        <ele>216</ele>
        <time>2011-03-04T01:48:43Z</time>
      </trkpt>
      <trkpt lat="48.62125" lon="6.30019">
        <ele>216</ele>
        <time>2011-03-04T01:48:48Z</time>
      </trkpt>
      <trkpt lat="48.62237" lon="6.30019">
        <ele>216</ele>
        <time>2011-03-04T01:49:03Z</time>
      </trkpt>
      <trkpt lat="48.62428" lon="6.30153">
        <ele>216</ele>
        <time>2011-03-04T01:49:31Z</time>
      </trkpt>
      <trkpt lat="48.62459" lon="6.30152">
        <ele>217</ele>
        <time>2011-03-04T01:49:39Z</time>
      </trkpt>
      <trkpt lat="48.62517" lon="6.30106">
        <ele>221</ele>
        <time>2011-03-04T01:49:56Z</time>
      </trkpt>
      <trkpt lat="48.62911" lon="6.30156">
        <ele>224</ele>
        <time>2011-03-04T01:50:56Z</time>
      </trkpt>
      <trkpt lat="48.62968" lon="6.30207">
        <ele>221</ele>
        <time>2011-03-04T01:51:05Z</time>
      </trkpt>
      <trkpt lat="48.63052" lon="6.30301">
        <ele>217</ele>
        <time>2011-03-04T01:51:19Z</time>
      </trkpt>
      <trkpt lat="48.63054" lon="6.3032">
        <ele>216</ele>
        <time>2011-03-04T01:51:20Z</time>
      </trkpt>
      <trkpt lat="48.63081" lon="6.3035">
        <ele>215</ele>
        <time>2011-03-04T01:51:25Z</time>
      </trkpt>
      <trkpt lat="48.63188" lon="6.30536">
        <ele>208</ele>
        <time>2011-03-04T01:51:47Z</time>
      </trkpt>
      <trkpt lat="48.63223" lon="6.30639">
        <ele>205</ele>
        <time>2011-03-04T01:51:57Z</time>
      </trkpt>
      <trkpt lat="48.63282" lon="6.3078">
        <ele>203</ele>
        <time>2011-03-04T01:52:12Z</time>
      </trkpt>
      <trkpt lat="48.63379" lon="6.30934">
        <ele>204</ele>
        <time>2011-03-04T01:52:33Z</time>
      </trkpt>
      <trkpt lat="48.63434" lon="6.31082">
        <ele>204</ele>
        <time>2011-03-04T01:52:48Z</time>
      </trkpt>
      <trkpt lat="48.63447" lon="6.31109">
        <ele>204</ele>
        <time>2011-03-04T01:52:51Z</time>
      </trkpt>
      <trkpt lat="48.63433" lon="6.31123">
        <ele>204</ele>
        <time>2011-03-04T01:52:53Z</time>
      </trkpt>
      <trkpt lat="48.63388" lon="6.31224">
        <ele>204</ele>
        <time>2011-03-04T01:53:04Z</time>
      </trkpt>
      <trkpt lat="48.63384" lon="6.31238">
        <ele>204</ele>
        <time>2011-03-04T01:53:05Z</time>
      </trkpt>
      <trkpt lat="48.63384" lon="6.31263">
        <ele>204</ele>
        <time>2011-03-04T01:53:07Z</time>
      </trkpt>
      <trkpt lat="48.63393" lon="6.31285">
        <ele>204</ele>
        <time>2011-03-04T01:53:09Z</time>
      </trkpt>
      <trkpt lat="48.63332" lon="6.31441">
        <ele>204</ele>
        <time>2011-03-04T01:53:25Z</time>
      </trkpt>
      <trkpt lat="48.63318" lon="6.31467">
        <ele>204</ele>
        <time>2011-03-04T01:53:28Z</time>
      </trkpt>
    </trkseg>
  </trk>
</gpx>